createdAt,value
2019-03-26T00:01:28.495Z,5.09
2019-03-26T00:04:05.220Z,5.24
2019-03-26T00:06:22.021Z,5.10
2019-03-26T00:08:47.815Z,5.11
2019-03-26T00:11:13.617Z,5.00
2019-03-26T00:13:39.443Z,4.95
2019-03-26T00:16:05.486Z,5.00
2019-03-26T00:18:31.573Z,5.02
2019-03-26T00:20:57.635Z,4.99
2019-03-26T00:23:23.725Z,5.10
2019-03-26T00:25:52.849Z,5.14
2019-03-26T00:28:18.682Z,5.26
2019-03-26T00:30:44.584Z,5.22
2019-03-26T00:33:10.409Z,5.27
2019-03-26T00:35:36.231Z,5.25
2019-03-26T00:38:02.471Z,5.19
2019-03-26T00:40:28.566Z,5.26
2019-03-26T00:42:57.512Z,5.36
2019-03-26T00:47:48.893Z,5.21
2019-03-26T00:50:14.683Z,5.04
2019-03-26T00:52:40.505Z,5.09
2019-03-26T00:55:07.058Z,5.10
2019-03-26T00:57:32.964Z,5.17
2019-03-26T01:00:03.915Z,5.21
2019-03-26T01:02:29.784Z,5.23
2019-03-26T01:04:55.675Z,5.14
2019-03-26T01:07:21.557Z,5.12
2019-03-26T01:09:47.371Z,4.98
2019-03-26T01:12:13.363Z,4.80
2019-03-26T01:14:39.448Z,4.63
2019-03-26T01:17:05.508Z,4.56
2019-03-26T01:19:31.349Z,4.44
2019-03-26T01:21:57.180Z,4.47
2019-03-26T01:24:22.999Z,4.44
2019-03-26T01:26:48.833Z,4.58
2019-03-26T01:29:14.641Z,4.64
2019-03-26T01:31:40.463Z,4.68
2019-03-26T01:34:06.251Z,4.77
2019-03-26T01:36:32.102Z,4.69
2019-03-26T01:38:58.197Z,4.59
2019-03-26T01:41:23.982Z,4.60
2019-03-26T01:43:50.275Z,4.72
2019-03-26T01:46:16.049Z,4.81
2019-03-26T01:48:41.874Z,4.86
2019-03-26T01:51:07.996Z,4.85
2019-03-26T01:53:34.075Z,4.71
2019-03-26T01:56:00.184Z,4.74
2019-03-26T01:58:26.030Z,4.79
2019-03-26T02:00:51.853Z,4.58
2019-03-26T02:03:17.901Z,4.88
2019-03-26T02:05:43.731Z,4.99
2019-03-26T02:08:09.532Z,4.93
2019-03-26T02:10:35.780Z,4.96
2019-03-26T02:13:01.589Z,4.92
2019-03-26T02:15:29.042Z,4.82
2019-03-26T02:17:54.839Z,4.71
2019-03-26T02:20:21.085Z,4.69
2019-03-26T02:22:46.986Z,4.63
2019-03-26T02:25:12.834Z,4.58
2019-03-26T02:27:38.899Z,4.46
2019-03-26T02:30:05.577Z,4.53
2019-03-26T02:32:34.659Z,4.48
2019-03-26T02:35:17.134Z,4.48
2019-03-26T02:37:28.672Z,4.54
2019-03-26T02:39:54.789Z,4.70
2019-03-26T02:42:22.412Z,4.74
2019-03-26T02:44:48.455Z,4.75
2019-03-26T02:47:17.300Z,4.70
2019-03-26T02:49:43.231Z,4.64
2019-03-26T02:52:09.041Z,4.67
2019-03-26T02:54:35.067Z,4.61
2019-03-26T02:57:01.153Z,4.69
2019-03-26T02:59:29.982Z,4.74
2019-03-26T03:01:55.879Z,4.77
2019-03-26T03:04:24.455Z,4.76
2019-03-26T03:06:50.298Z,4.73
2019-03-26T03:09:19.553Z,4.55
2019-03-26T03:11:45.383Z,4.60
2019-03-26T03:14:14.599Z,4.66
2019-03-26T03:16:40.413Z,4.76
2019-03-26T03:19:07.615Z,4.76
2019-03-26T03:21:33.406Z,4.81
2019-03-26T03:24:02.231Z,4.79
2019-03-26T03:26:28.081Z,4.86
2019-03-26T03:28:54.102Z,4.93
2019-03-26T03:31:20.008Z,4.94
2019-03-26T03:33:45.846Z,4.93
2019-03-26T03:36:14.746Z,4.87
2019-03-26T03:38:41.503Z,4.87
2019-03-26T03:41:09.244Z,4.86
2019-03-26T03:43:35.161Z,4.85
2019-03-26T03:46:04.494Z,4.82
2019-03-26T03:48:31.566Z,4.76
2019-03-26T03:50:57.917Z,4.83
2019-03-26T03:53:24.918Z,4.85
2019-03-26T03:55:55.012Z,4.80
2019-03-26T03:58:22.624Z,4.81
2019-03-26T04:00:48.729Z,4.81
2019-03-26T04:03:14.798Z,4.93
2019-03-26T04:05:40.581Z,4.95
2019-03-26T04:08:06.534Z,5.03
2019-03-26T04:10:32.683Z,4.93
2019-03-26T04:12:58.890Z,4.94
2019-03-26T04:15:24.701Z,4.96
2019-03-26T04:17:53.597Z,4.97
2019-03-26T04:20:19.383Z,4.92
2019-03-26T04:22:48.293Z,4.84
2019-03-26T04:25:14.142Z,4.85
2019-03-26T04:27:42.987Z,4.93
2019-03-26T04:30:09.204Z,4.93
2019-03-26T04:32:37.652Z,5.05
2019-03-26T04:35:04.917Z,5.16
2019-03-26T04:37:33.712Z,5.15
2019-03-26T04:39:59.522Z,5.19
2019-03-26T04:42:25.369Z,5.18
2019-03-26T04:44:51.166Z,5.17
2019-03-26T04:47:17.291Z,5.09
2019-03-26T04:49:45.921Z,5.05
2019-03-26T04:52:11.712Z,5.07
2019-03-26T04:54:40.577Z,5.10
2019-03-26T04:57:06.405Z,5.15
2019-03-26T04:59:33.323Z,5.13
2019-03-26T05:01:59.395Z,5.13
2019-03-26T05:04:28.253Z,5.10
2019-03-26T05:06:54.054Z,5.14
2019-03-26T05:09:22.912Z,5.06
2019-03-26T05:11:48.691Z,5.03
2019-03-26T05:14:17.664Z,5.05
2019-03-26T05:16:43.465Z,5.04
2019-03-26T05:19:09.274Z,5.09
2019-03-26T05:21:35.112Z,5.07
2019-03-26T05:24:00.997Z,5.07
2019-03-26T05:26:30.698Z,5.01
2019-03-26T05:28:56.758Z,4.96
2019-03-26T05:31:25.627Z,4.88
2019-03-26T05:33:51.442Z,4.95
2019-03-26T05:36:20.271Z,4.91
2019-03-26T05:38:46.097Z,4.83
2019-03-26T05:41:14.901Z,4.92
2019-03-26T05:43:40.699Z,4.96
2019-03-26T05:46:09.299Z,5.06
2019-03-26T05:48:35.393Z,4.99
2019-03-26T05:51:04.258Z,5.05
2019-03-26T05:53:30.082Z,5.01
2019-03-26T05:55:55.903Z,4.91
2019-03-26T05:58:21.740Z,4.93
2019-03-26T06:00:47.580Z,4.97
2019-03-26T06:03:16.220Z,4.98
2019-03-26T06:05:42.054Z,4.99
2019-03-26T06:08:11.034Z,5.10
2019-03-26T06:10:36.833Z,5.21
2019-03-26T06:13:05.696Z,5.21
2019-03-26T06:15:31.507Z,5.27
2019-03-26T06:18:00.371Z,5.31
2019-03-26T06:20:26.172Z,5.15
2019-03-26T06:22:55.619Z,5.46
2019-03-26T06:25:21.426Z,5.51
2019-03-26T06:27:50.272Z,5.55
2019-03-26T06:30:16.097Z,5.56
2019-03-26T06:32:41.923Z,5.52
2019-03-26T06:35:08.325Z,5.57
2019-03-26T06:37:34.453Z,5.52
2019-03-26T06:40:00.397Z,5.55
2019-03-26T06:42:26.234Z,5.60
2019-03-26T06:44:55.248Z,5.60
2019-03-26T06:47:21.345Z,5.54
2019-03-26T06:49:50.767Z,5.62
2019-03-26T06:52:16.630Z,5.61
2019-03-26T06:54:45.205Z,5.61
2019-03-26T06:57:11.413Z,5.56
2019-03-26T06:59:38.866Z,5.60
2019-03-26T07:02:05.050Z,5.58
2019-03-26T07:04:33.879Z,5.68
2019-03-26T07:06:59.666Z,5.74
2019-03-26T07:09:25.488Z,5.67
2019-03-26T07:11:51.277Z,5.68
2019-03-26T07:14:17.380Z,5.72
2019-03-26T07:16:45.975Z,5.77
2019-03-26T07:19:11.776Z,5.82
2019-03-26T07:21:49.603Z,5.84
2019-03-26T07:24:09.539Z,5.96
2019-03-26T07:26:35.349Z,5.90
2019-03-26T07:29:01.154Z,6.17
2019-03-26T07:31:29.765Z,6.52
2019-03-26T07:33:55.846Z,7.18
2019-03-26T07:36:24.532Z,7.82
2019-03-26T07:38:50.337Z,8.26
2019-03-26T07:41:20.447Z,8.55
2019-03-26T07:43:46.279Z,8.47
2019-03-26T07:46:12.379Z,8.21
2019-03-26T07:48:38.180Z,7.90
2019-03-26T07:51:04.015Z,7.48
2019-03-26T07:53:32.837Z,7.27
2019-03-26T07:55:59.012Z,7.24
2019-03-26T07:58:26.526Z,6.98
2019-03-26T08:00:52.492Z,7.02
2019-03-26T08:03:21.313Z,6.90
2019-03-26T08:05:50.596Z,6.90
2019-03-26T08:08:16.419Z,6.90
2019-03-26T08:10:42.235Z,7.05
2019-03-26T08:13:10.961Z,7.16
2019-03-26T08:15:36.897Z,7.40
2019-03-26T08:18:05.716Z,7.49
2019-03-26T08:20:31.806Z,7.41
2019-03-26T08:22:57.709Z,7.53
2019-03-26T08:25:23.508Z,7.37
2019-03-26T08:27:49.326Z,7.32
2019-03-26T08:30:17.907Z,7.39
2019-03-26T08:32:44.025Z,7.92
2019-03-26T08:35:12.848Z,8.00
2019-03-26T08:37:38.674Z,7.74
2019-03-26T08:40:07.862Z,7.33
2019-03-26T08:42:33.967Z,7.63
2019-03-26T08:45:01.443Z,7.92
2019-03-26T08:47:27.497Z,8.46
2019-03-26T08:49:56.373Z,8.86
2019-03-26T08:52:22.193Z,9.13
2019-03-26T08:54:51.016Z,9.00
2019-03-26T08:57:17.103Z,8.89
2019-03-26T08:59:42.939Z,8.89
2019-03-26T09:02:08.794Z,8.72
2019-03-26T09:04:34.851Z,8.80
2019-03-26T09:07:02.392Z,8.70
2019-03-26T09:09:28.586Z,8.84
2019-03-26T09:11:57.183Z,8.67
2019-03-26T09:14:23.269Z,8.79
2019-03-26T09:16:52.119Z,8.95
2019-03-26T09:19:18.040Z,8.99
2019-03-26T09:21:46.706Z,8.92
2019-03-26T09:24:12.523Z,8.91
2019-03-26T09:26:41.431Z,8.67
2019-03-26T09:29:07.229Z,8.33
2019-03-26T09:31:36.084Z,8.25
2019-03-26T09:34:02.328Z,8.96
2019-03-26T09:36:28.149Z,9.54
2019-03-26T09:38:54.006Z,10.45
2019-03-26T09:41:19.873Z,10.82
2019-03-26T09:43:48.633Z,10.46
2019-03-26T09:46:14.468Z,9.96
2019-03-26T09:48:43.364Z,9.36
2019-03-26T09:51:10.840Z,9.36
2019-03-26T09:53:36.995Z,9.14
2019-03-26T09:56:03.551Z,8.99
2019-03-26T09:58:32.097Z,8.99
2019-03-26T10:00:57.945Z,8.88
2019-03-26T10:03:26.785Z,8.90
2019-03-26T10:05:52.596Z,8.90
2019-03-26T10:08:20.058Z,8.78
2019-03-26T10:10:46.163Z,8.88
2019-03-26T10:13:11.950Z,8.86
2019-03-26T10:15:37.853Z,8.84
2019-03-26T10:18:03.954Z,8.87
2019-03-26T10:20:31.859Z,8.92
2019-03-26T10:22:57.787Z,8.80
2019-03-26T10:25:29.451Z,8.82
2019-03-26T10:27:55.302Z,9.04
2019-03-26T10:30:34.279Z,9.37
2019-03-26T10:33:00.594Z,9.32
2019-03-26T10:35:26.409Z,9.35
2019-03-26T10:37:52.220Z,9.61
2019-03-26T10:40:33.876Z,9.68
2019-03-26T10:42:59.797Z,9.91
2019-03-26T10:45:25.875Z,10.14
2019-03-26T10:47:53.538Z,10.98
2019-03-26T10:50:19.351Z,12.54
2019-03-26T10:52:45.198Z,13.59
2019-03-26T10:55:11.190Z,14.77
2019-03-26T10:57:37.035Z,15.07
2019-03-26T11:00:06.220Z,13.79
2019-03-26T11:02:32.126Z,12.95
2019-03-26T11:04:57.937Z,12.21
2019-03-26T11:07:24.011Z,11.72
2019-03-26T11:09:49.819Z,11.32
2019-03-26T11:12:15.627Z,11.10
2019-03-26T11:14:41.415Z,10.93
2019-03-26T11:17:07.692Z,10.78
2019-03-26T11:19:33.515Z,10.29
2019-03-26T11:21:59.425Z,10.32
2019-03-26T11:24:25.556Z,10.74
2019-03-26T11:26:51.467Z,11.00
2019-03-26T11:29:17.595Z,11.34
2019-03-26T11:31:43.661Z,11.87
2019-03-26T11:34:09.461Z,11.82
2019-03-26T11:36:35.521Z,11.74
2019-03-26T11:39:01.331Z,11.48
2019-03-26T11:41:27.412Z,11.31
2019-03-26T11:43:53.477Z,11.11
2019-03-26T11:46:19.303Z,11.01
2019-03-26T11:48:48.341Z,10.68
2019-03-26T11:51:14.302Z,10.62
2019-03-26T11:53:42.934Z,10.24
2019-03-26T11:56:08.752Z,10.10
2019-03-26T11:58:37.486Z,10.00
2019-03-26T12:01:04.401Z,10.01
2019-03-26T12:03:30.502Z,10.00
2019-03-26T12:05:56.348Z,9.88
2019-03-26T12:08:22.196Z,9.83
2019-03-26T12:10:48.011Z,9.87
2019-03-26T12:13:14.068Z,9.73
2019-03-26T12:15:42.899Z,9.60
2019-03-26T12:18:08.739Z,9.52
2019-03-26T12:20:39.227Z,9.53
2019-03-26T12:23:05.012Z,9.55
2019-03-26T12:25:33.997Z,9.72
2019-03-26T12:27:59.829Z,9.81
2019-03-26T12:30:33.311Z,9.84
2019-03-26T12:32:59.233Z,9.56
2019-03-26T12:35:28.722Z,9.61
2019-03-26T12:37:54.811Z,9.75
2019-03-26T12:40:20.629Z,9.83
2019-03-26T12:42:46.733Z,10.02
2019-03-26T12:45:12.639Z,10.05
2019-03-26T12:47:38.493Z,10.07
2019-03-26T12:50:05.805Z,10.11
2019-03-26T12:52:31.900Z,10.16
2019-03-26T12:54:57.738Z,10.00
2019-03-26T12:57:23.572Z,9.61
2019-03-26T12:59:49.402Z,9.54
2019-03-26T13:02:18.708Z,9.85
2019-03-26T13:04:44.583Z,10.22
2019-03-26T13:07:13.425Z,10.69
2019-03-26T13:09:41.786Z,11.56
2019-03-26T13:12:07.075Z,11.80
2019-03-26T13:14:32.899Z,11.48
2019-03-26T13:16:58.746Z,11.37
2019-03-26T13:19:24.852Z,11.37
2019-03-26T13:21:50.967Z,11.26
2019-03-26T13:24:19.562Z,11.04
2019-03-26T13:26:48.765Z,11.17
2019-03-26T13:29:13.678Z,11.35
2019-03-26T13:31:39.763Z,11.47
2019-03-26T13:34:07.792Z,12.02
2019-03-26T13:36:33.681Z,13.05
2019-03-26T13:39:06.783Z,13.77
2019-03-26T13:41:32.589Z,13.94
2019-03-26T13:43:58.424Z,13.52
2019-03-26T13:46:24.256Z,13.75
2019-03-26T13:48:53.518Z,13.66
2019-03-26T13:51:19.784Z,13.23
2019-03-26T13:53:45.624Z,13.35
2019-03-26T13:56:11.469Z,13.15
2019-03-26T13:58:37.312Z,12.55
2019-03-26T14:01:04.859Z,12.24
2019-03-26T14:03:30.701Z,12.25
2019-03-26T14:06:00.141Z,11.93
2019-03-26T14:08:26.309Z,12.37
2019-03-26T14:10:55.275Z,12.95
2019-03-26T14:13:21.086Z,12.97
2019-03-26T14:15:49.662Z,13.34
2019-03-26T14:18:15.552Z,13.51
2019-03-26T14:20:44.381Z,13.71
2019-03-26T14:23:10.191Z,13.49
2019-03-26T14:25:38.774Z,12.88
2019-03-26T14:28:04.828Z,12.31
2019-03-26T14:30:42.132Z,12.05
2019-03-26T14:33:08.156Z,11.64
2019-03-26T14:35:34.266Z,12.01
2019-03-26T14:38:00.076Z,12.72
2019-03-26T14:40:25.928Z,13.45
2019-03-26T14:42:51.981Z,13.83
2019-03-26T14:45:17.950Z,13.37
2019-03-26T14:47:43.731Z,13.10
2019-03-26T14:50:09.652Z,12.95
2019-03-26T14:52:35.460Z,13.09
2019-03-26T14:55:01.266Z,13.07
2019-03-26T14:57:30.077Z,13.01
2019-03-26T14:59:55.932Z,12.65
2019-03-26T15:02:23.255Z,12.53
2019-03-26T15:04:49.376Z,12.21
2019-03-26T15:07:15.185Z,11.76
2019-03-26T15:09:41.021Z,11.50
2019-03-26T15:12:06.906Z,11.42
2019-03-26T15:14:35.753Z,11.49
2019-03-26T15:17:01.587Z,11.77
2019-03-26T15:19:30.168Z,12.34
2019-03-26T15:21:56.024Z,13.15
2019-03-26T15:24:24.594Z,14.18
2019-03-26T15:26:50.444Z,14.94
2019-03-26T15:29:19.142Z,14.32
2019-03-26T15:31:44.982Z,12.93
2019-03-26T15:34:13.849Z,13.30
2019-03-26T15:36:39.636Z,13.04
2019-03-26T15:39:08.603Z,12.31
2019-03-26T15:41:34.472Z,12.35
2019-03-26T15:44:00.565Z,12.17
2019-03-26T15:46:26.385Z,11.95
2019-03-26T15:48:52.301Z,11.98
2019-03-26T15:51:21.420Z,11.85
2019-03-26T15:53:47.270Z,11.59
2019-03-26T15:56:15.846Z,11.37
2019-03-26T15:58:41.714Z,11.15
2019-03-26T16:01:10.799Z,11.03
2019-03-26T16:03:36.633Z,10.92
2019-03-26T16:06:05.909Z,10.90
2019-03-26T16:08:31.763Z,11.08
2019-03-26T16:11:01.005Z,11.68
2019-03-26T16:13:26.829Z,12.27
2019-03-26T16:15:55.667Z,12.17
2019-03-26T16:18:21.603Z,11.93
2019-03-26T16:20:47.422Z,11.61
2019-03-26T16:23:13.227Z,11.38
2019-03-26T16:25:39.341Z,11.31
2019-03-26T16:28:06.555Z,11.16
2019-03-26T16:30:34.491Z,11.01
2019-03-26T16:33:00.505Z,10.68
2019-03-26T16:35:26.343Z,10.60
2019-03-26T16:37:54.948Z,10.45
2019-03-26T16:40:20.800Z,10.32
2019-03-26T16:42:50.118Z,10.03
2019-03-26T16:45:16.125Z,9.80
2019-03-26T16:47:44.969Z,9.77
2019-03-26T16:50:10.894Z,9.64
2019-03-26T16:52:39.557Z,9.68
2019-03-26T16:55:05.722Z,9.77
2019-03-26T16:57:31.517Z,9.88
2019-03-26T16:59:57.340Z,10.09
2019-03-26T17:02:23.192Z,10.10
2019-03-26T17:04:51.749Z,10.11
2019-03-26T17:07:17.558Z,10.02
2019-03-26T17:09:46.142Z,9.65
2019-03-26T17:12:11.952Z,9.54
2019-03-26T17:14:41.653Z,9.36
2019-03-26T17:17:07.527Z,9.16
2019-03-26T17:19:36.140Z,9.24
2019-03-26T17:22:01.977Z,9.07
2019-03-26T17:24:30.548Z,8.89
2019-03-26T17:26:56.652Z,8.81
2019-03-26T17:29:25.597Z,8.88
2019-03-26T17:31:51.541Z,8.92
2019-03-26T17:34:17.357Z,8.96
2019-03-26T17:36:43.437Z,8.89
2019-03-26T17:39:09.550Z,8.63
2019-03-26T17:41:36.999Z,8.62
2019-03-26T17:44:03.019Z,8.58
2019-03-26T17:46:31.571Z,8.47
2019-03-26T17:48:57.420Z,8.56
2019-03-26T17:51:25.689Z,8.64
2019-03-26T17:53:51.505Z,8.53
2019-03-26T17:56:21.037Z,8.47
2019-03-26T17:58:46.879Z,8.43
2019-03-26T18:01:15.744Z,8.42
2019-03-26T18:03:41.576Z,8.30
2019-03-26T18:06:10.868Z,8.30
2019-03-26T18:08:36.718Z,8.29
2019-03-26T18:11:02.508Z,8.22
2019-03-26T18:13:28.303Z,8.13
2019-03-26T18:15:54.168Z,7.96
2019-03-26T18:18:22.936Z,8.00
2019-03-26T18:20:49.051Z,8.01
2019-03-26T18:23:17.818Z,7.92
2019-03-26T18:25:43.747Z,7.82
2019-03-26T18:28:12.672Z,7.69
2019-03-26T18:30:38.505Z,7.65
2019-03-26T18:33:06.333Z,7.64
2019-03-26T18:35:32.138Z,7.62
2019-03-26T18:38:00.970Z,7.65
2019-03-26T18:40:26.767Z,7.60
2019-03-26T18:42:55.536Z,7.47
2019-03-26T18:45:21.341Z,7.46
2019-03-26T18:47:47.376Z,7.46
2019-03-26T18:50:13.994Z,7.50
2019-03-26T18:52:39.795Z,7.52
2019-03-26T18:55:06.987Z,7.46
2019-03-26T18:57:32.876Z,7.29
2019-03-26T19:00:06.242Z,7.25
2019-03-26T19:02:32.055Z,7.29
2019-03-26T19:04:57.893Z,7.30
2019-03-26T19:07:23.962Z,7.25
2019-03-26T19:09:52.784Z,7.31
2019-03-26T19:12:18.605Z,7.18
2019-03-26T19:14:47.360Z,7.08
2019-03-26T19:17:13.524Z,7.13
2019-03-26T19:19:42.062Z,7.05
2019-03-26T19:22:08.176Z,6.99
2019-03-26T19:24:34.027Z,6.89
2019-03-26T19:26:59.802Z,6.96
2019-03-26T19:29:25.785Z,6.92
2019-03-26T19:31:53.068Z,6.95
2019-03-26T19:34:18.895Z,7.04
2019-03-26T19:36:47.762Z,6.99
2019-03-26T19:39:13.570Z,6.98
2019-03-26T19:41:42.235Z,6.97
2019-03-26T19:44:08.051Z,7.03
2019-03-26T19:46:36.736Z,7.09
2019-03-26T19:49:02.680Z,7.07
2019-03-26T19:51:31.660Z,6.92
2019-03-26T19:53:57.503Z,6.88
2019-03-26T19:56:26.360Z,6.82
2019-03-26T19:58:52.425Z,6.72
2019-03-26T20:01:18.265Z,6.67
2019-03-26T20:03:44.104Z,6.60
2019-03-26T20:06:13.731Z,6.57
2019-03-26T20:08:37.654Z,6.56
2019-03-26T20:11:03.509Z,6.56
2019-03-26T20:13:32.366Z,6.50
2019-03-26T20:15:58.161Z,6.50
2019-03-26T20:18:26.772Z,6.48
2019-03-26T20:20:52.633Z,6.48
2019-03-26T20:23:23.259Z,6.46
2019-03-26T20:25:49.465Z,6.28
2019-03-26T20:28:18.587Z,6.11
2019-03-26T20:30:44.379Z,6.11
2019-03-26T20:33:13.267Z,6.17
2019-03-26T20:35:39.382Z,6.20
2019-03-26T20:38:05.302Z,6.06
2019-03-26T20:40:31.119Z,6.04
2019-03-26T20:42:56.902Z,5.92
2019-03-26T20:45:22.906Z,5.89
2019-03-26T20:47:48.732Z,5.85
2019-03-26T20:50:17.865Z,5.89
2019-03-26T20:52:43.684Z,5.87
2019-03-26T20:55:14.533Z,5.94
2019-03-26T20:57:40.454Z,5.94
2019-03-26T21:00:10.094Z,5.88
2019-03-26T21:02:36.268Z,5.85
2019-03-26T21:05:02.537Z,5.91
2019-03-26T21:07:28.404Z,5.98
2019-03-26T21:09:57.169Z,5.93
2019-03-26T21:12:23.066Z,5.96
2019-03-26T21:14:48.908Z,6.01
2019-03-26T21:17:15.038Z,6.02
2019-03-26T21:19:40.884Z,5.98
2019-03-26T21:22:10.004Z,5.93
2019-03-26T21:24:36.139Z,5.72
2019-03-26T21:27:04.751Z,5.60
2019-03-26T21:29:30.592Z,5.56
2019-03-26T21:31:59.435Z,5.71
2019-03-26T21:34:30.534Z,5.84
2019-03-26T21:36:53.240Z,5.91
2019-03-26T21:39:19.067Z,5.92
2019-03-26T21:41:47.911Z,6.04
2019-03-26T21:44:13.767Z,6.08
2019-03-26T21:46:42.363Z,6.07
2019-03-26T21:49:08.160Z,6.15
2019-03-26T21:51:34.297Z,6.04
2019-03-26T21:54:00.437Z,5.98
2019-03-26T21:56:26.245Z,5.99
2019-03-26T21:58:55.088Z,6.04
2019-03-26T22:01:20.900Z,6.08
2019-03-26T22:03:49.511Z,6.07
2019-03-26T22:06:15.599Z,6.18
2019-03-26T22:08:43.127Z,6.22
2019-03-26T22:11:08.903Z,6.23
2019-03-26T22:13:37.517Z,6.29
2019-03-26T22:16:03.345Z,6.28
2019-03-26T22:18:33.744Z,6.33
2019-03-26T22:20:59.548Z,6.30
2019-03-26T22:23:28.118Z,6.35
2019-03-26T22:25:54.066Z,6.31
2019-03-26T22:28:20.141Z,6.32
2019-03-26T22:30:45.940Z,6.26
2019-03-26T22:33:12.542Z,6.19
2019-03-26T22:35:39.854Z,6.06
2019-03-26T22:38:05.662Z,6.02
2019-03-26T22:40:34.718Z,5.88
2019-03-26T22:43:00.534Z,5.85
2019-03-26T22:45:29.527Z,5.92
2019-03-26T22:47:55.357Z,5.85
2019-03-26T22:50:23.956Z,5.96
2019-03-26T22:52:50.041Z,5.95
2019-03-26T22:55:18.888Z,5.92
2019-03-26T22:57:44.779Z,5.75
2019-03-26T23:00:17.857Z,5.64
2019-03-26T23:02:43.740Z,5.51
2019-03-26T23:05:09.830Z,5.40
2019-03-26T23:07:35.702Z,5.50
2019-03-26T23:10:02.227Z,5.55
2019-03-26T23:12:28.032Z,5.60
2019-03-26T23:14:53.975Z,5.66
2019-03-26T23:17:20.187Z,5.72
2019-03-26T23:19:46.273Z,5.58
2019-03-26T23:22:15.353Z,5.58
2019-03-26T23:24:41.154Z,5.65
2019-03-26T23:27:10.072Z,5.78
2019-03-26T23:29:35.910Z,5.72
2019-03-26T23:32:04.487Z,5.61
2019-03-26T23:34:30.308Z,5.59
2019-03-26T23:36:58.965Z,5.60
2019-03-26T23:39:24.798Z,5.65
2019-03-26T23:41:50.591Z,5.69
2019-03-26T23:44:25.682Z,5.81
2019-03-26T23:46:44.166Z,5.91
2019-03-26T23:49:10.003Z,5.91
2019-03-26T23:51:36.181Z,5.91
2019-03-26T23:54:05.024Z,5.89
2019-03-26T23:56:31.099Z,5.93
2019-03-26T23:58:59.994Z,5.93
